createdAt,value
2019-04-27T00:02:45.182Z,100918.97
2019-04-27T00:07:46.741Z,100913.52
2019-04-27T00:12:40.882Z,100908.75
2019-04-27T00:18:00.538Z,100907.56
2019-04-27T00:22:57.911Z,100899.33
2019-04-27T00:27:53.425Z,100897.58
2019-04-27T00:32:47.848Z,100895.19
2019-04-27T00:37:50.534Z,100886.64
2019-04-27T00:42:45.194Z,100884.28
2019-04-27T00:47:39.293Z,100886.05
2019-04-27T00:52:34.877Z,100877.11
2019-04-27T00:57:45.870Z,100878.23
2019-04-27T01:03:03.704Z,100869.57
2019-04-27T01:07:57.979Z,100861.52
2019-04-27T01:12:53.101Z,100861.31
2019-04-27T01:17:48.943Z,100852.09
2019-04-27T01:22:45.270Z,100847.19
2019-04-27T01:27:59.664Z,100841.84
2019-04-27T01:32:53.676Z,100835.39
2019-04-27T01:37:48.749Z,100830.30
2019-04-27T01:42:42.694Z,100829.26
2019-04-27T01:47:36.692Z,100831.77
2019-04-27T01:52:31.076Z,100827.17
2019-04-27T01:57:25.481Z,100824.75
2019-04-27T02:02:33.171Z,100823.17
2019-04-27T02:07:27.081Z,100828.66
2019-04-27T02:12:21.171Z,100825.59
2019-04-27T02:17:15.984Z,100816.35
2019-04-27T02:22:11.265Z,100815.28
2019-04-27T02:27:05.427Z,100805.16
2019-04-27T02:32:06.080Z,100806.00
2019-04-27T02:37:02.738Z,100798.97
2019-04-27T02:41:56.136Z,100795.30
2019-04-27T02:46:50.396Z,100789.04
2019-04-27T02:52:02.502Z,100786.73
2019-04-27T02:56:56.446Z,100782.63
2019-04-27T03:01:56.942Z,100776.61
2019-04-27T03:06:50.958Z,100776.59
2019-04-27T03:11:45.138Z,100764.21
2019-04-27T03:16:49.646Z,100758.94
2019-04-27T03:21:59.298Z,100751.22
2019-04-27T03:26:56.495Z,100749.67
2019-04-27T03:31:53.887Z,100737.52
2019-04-27T03:36:46.218Z,100736.97
2019-04-27T03:41:41.104Z,100731.27
2019-04-27T03:46:35.394Z,100720.02
2019-04-27T03:51:52.041Z,100711.20
2019-04-27T03:56:50.842Z,100703.17
2019-04-27T04:01:45.042Z,100698.36
2019-04-27T04:06:39.996Z,100699.03
2019-04-27T04:11:49.137Z,100691.25
2019-04-27T04:17:03.127Z,100685.44
2019-04-27T04:21:59.894Z,100694.42
2019-04-27T04:26:54.176Z,100689.26
2019-04-27T04:31:50.339Z,100695.37
2019-04-27T04:36:43.800Z,100689.84
2019-04-27T04:41:47.571Z,100693.91
2019-04-27T04:46:50.119Z,100696.20
2019-04-27T04:51:44.197Z,100697.53
2019-04-27T04:56:39.280Z,100691.91
2019-04-27T05:01:33.350Z,100691.48
2019-04-27T05:06:29.062Z,100695.70
2019-04-27T05:11:23.204Z,100690.77
2019-04-27T05:16:18.931Z,100687.28
2019-04-27T05:21:22.023Z,100688.49
2019-04-27T05:26:16.071Z,100682.73
2019-04-27T05:31:10.040Z,100683.29
2019-04-27T05:36:03.803Z,100690.01
2019-04-27T05:40:58.641Z,100684.69
2019-04-27T05:46:39.688Z,100679.34
2019-04-27T05:51:37.086Z,100683.22
2019-04-27T05:56:29.359Z,100679.34
2019-04-27T06:01:23.334Z,100675.82
2019-04-27T06:06:17.186Z,100669.49
2019-04-27T06:11:11.004Z,100671.11
2019-04-27T06:16:05.113Z,100664.91
2019-04-27T06:20:59.833Z,100667.24
2019-04-27T06:25:53.903Z,100667.17
2019-04-27T06:30:49.229Z,100671.67
2019-04-27T06:35:43.332Z,100664.67
2019-04-27T06:40:38.941Z,100666.34
2019-04-27T06:45:33.023Z,100668.80
2019-04-27T06:50:26.647Z,100663.23
2019-04-27T06:55:20.645Z,100657.94
2019-04-27T07:00:14.808Z,100659.39
2019-04-27T07:05:09.084Z,100654.22
2019-04-27T07:10:03.007Z,100659.73
2019-04-27T07:14:59.033Z,100659.36
2019-04-27T07:19:52.875Z,100655.78
2019-04-27T07:24:46.914Z,100649.89
2019-04-27T07:29:44.680Z,100647.70
2019-04-27T07:34:36.565Z,100653.59
2019-04-27T07:39:30.751Z,100651.86
2019-04-27T07:44:33.731Z,100647.63
2019-04-27T07:49:29.077Z,100642.29
2019-04-27T07:54:23.847Z,100643.05
2019-04-27T07:59:18.864Z,100638.83
2019-04-27T08:04:12.919Z,100630.55
2019-04-27T08:09:06.917Z,100629.06
2019-04-27T08:14:00.854Z,100620.91
2019-04-27T08:18:54.775Z,100615.46
2019-04-27T08:23:49.067Z,100612.70
2019-04-27T08:28:53.493Z,100612.96
2019-04-27T08:33:48.662Z,100611.66
2019-04-27T08:38:42.830Z,100616.55
2019-04-27T08:43:38.850Z,100609.45
2019-04-27T08:48:36.747Z,100607.50
2019-04-27T08:53:29.866Z,100610.56
2019-04-27T08:58:23.861Z,100601.28
2019-04-27T09:03:19.281Z,100594.92
2019-04-27T09:08:29.493Z,100580.55
2019-04-27T09:13:30.018Z,100572.81
2019-04-27T09:18:26.376Z,100569.15
2019-04-27T09:23:20.487Z,100574.58
2019-04-27T09:28:14.595Z,100571.98
2019-04-27T09:33:11.729Z,100560.27
2019-04-27T09:38:07.079Z,100609.95
2019-04-27T09:43:01.287Z,100646.54
2019-04-27T09:47:56.293Z,100646.45
2019-04-27T09:52:50.393Z,100647.83
2019-04-27T09:57:44.393Z,100650.97
2019-04-27T10:02:41.005Z,100649.41
2019-04-27T10:07:35.882Z,100641.35
2019-04-27T10:12:30.057Z,100642.11
2019-04-27T10:17:25.028Z,100632.11
2019-04-27T10:22:19.104Z,100625.11
2019-04-27T10:27:13.124Z,100629.36
2019-04-27T10:32:07.148Z,100627.67
2019-04-27T10:37:01.568Z,100622.72
2019-04-27T10:41:56.368Z,100627.78
2019-04-27T10:46:50.358Z,100626.70
2019-04-27T10:51:45.683Z,100635.42
2019-04-27T10:56:39.961Z,100631.90
2019-04-27T11:01:35.943Z,100640.48
2019-04-27T11:06:36.016Z,100641.38
2019-04-27T11:11:29.932Z,100650.69
2019-04-27T11:16:23.919Z,100662.18
2019-04-27T11:21:17.905Z,100666.91
2019-04-27T11:26:12.031Z,100683.86
2019-04-27T11:31:06.902Z,100692.00
2019-04-27T11:36:19.210Z,100700.56
2019-04-27T11:41:13.335Z,100693.53
2019-04-27T11:46:07.642Z,100681.92
2019-04-27T11:51:02.628Z,100673.74
2019-04-27T11:55:56.656Z,100680.71
2019-04-27T12:00:51.730Z,100684.34
2019-04-27T12:05:46.489Z,100671.74
2019-04-27T12:10:40.542Z,100658.32
2019-04-27T12:15:36.185Z,100644.33
2019-04-27T12:20:30.479Z,100633.58
2019-04-27T12:25:24.356Z,100642.84
2019-04-27T12:30:31.646Z,100654.52
2019-04-27T12:35:25.804Z,100644.89
2019-04-27T12:40:20.080Z,100653.06
2019-04-27T12:45:17.970Z,100652.05
2019-04-27T12:50:12.339Z,100652.47
2019-04-27T12:55:22.538Z,100657.13
2019-04-27T13:00:20.490Z,100646.02
2019-04-27T13:05:15.782Z,100635.05
2019-04-27T13:10:09.945Z,100626.63
2019-04-27T13:15:04.606Z,100622.26
2019-04-27T13:19:58.650Z,100612.28
2019-04-27T13:24:52.545Z,100608.38
2019-04-27T13:29:46.776Z,100614.00
2019-04-27T13:34:40.709Z,100592.30
2019-04-27T13:39:35.937Z,100595.41
2019-04-27T13:44:30.140Z,100590.53
2019-04-27T13:49:36.419Z,100579.78
2019-04-27T13:54:30.572Z,100574.34
2019-04-27T13:59:25.609Z,100576.94
2019-04-27T14:04:19.618Z,100580.06
2019-04-27T14:09:13.606Z,100615.05
2019-04-27T14:14:07.535Z,100659.41
2019-04-27T14:19:01.575Z,100641.27
2019-04-27T14:23:55.590Z,100630.09
2019-04-27T14:28:49.983Z,100633.62
2019-04-27T14:33:44.063Z,100620.41
2019-04-27T14:38:38.085Z,100609.59
2019-04-27T14:43:32.060Z,100602.09
2019-04-27T14:48:26.013Z,100586.66
2019-04-27T14:53:20.334Z,100579.11
2019-04-27T14:58:14.336Z,100574.16
2019-04-27T15:03:09.750Z,100565.09
2019-04-27T15:08:08.198Z,100570.23
2019-04-27T15:13:01.586Z,100589.39
2019-04-27T15:17:57.473Z,100601.39
2019-04-27T15:22:56.708Z,100638.41
2019-04-27T15:27:51.872Z,100639.73
2019-04-27T15:33:03.992Z,100632.67
2019-04-27T15:38:05.090Z,100621.62
2019-04-27T15:43:05.705Z,100618.72
2019-04-27T15:48:00.538Z,100620.14
2019-04-27T15:52:54.640Z,100618.77
2019-04-27T15:57:50.341Z,100627.03
2019-04-27T16:02:48.741Z,100641.70
2019-04-27T16:07:40.325Z,100646.31
2019-04-27T16:12:38.131Z,100641.75
2019-04-27T16:17:32.046Z,100643.69
2019-04-27T16:22:26.901Z,100662.89
2019-04-27T16:27:25.888Z,100678.78
2019-04-27T16:32:17.807Z,100701.31
2019-04-27T16:37:18.062Z,100736.78
2019-04-27T16:42:14.080Z,100726.80
2019-04-27T16:47:05.517Z,100737.59
2019-04-27T16:51:59.448Z,100736.80
2019-04-27T16:57:02.172Z,100739.22
2019-04-27T17:01:50.315Z,100741.30
2019-04-27T17:06:45.967Z,100739.65
2019-04-27T17:11:43.816Z,100743.13
2019-04-27T17:16:45.244Z,100745.63
2019-04-27T17:21:41.215Z,100756.36
2019-04-27T17:26:35.545Z,100768.92
2019-04-27T17:31:32.549Z,100777.42
2019-04-27T17:36:26.572Z,100784.27
2019-04-27T17:41:20.601Z,100786.73
2019-04-27T17:46:14.399Z,100797.42
2019-04-27T17:51:08.918Z,100792.59
2019-04-27T17:56:05.957Z,100790.63
2019-04-27T18:00:59.939Z,100796.16
2019-04-27T18:05:54.022Z,100802.63
2019-04-27T18:10:48.095Z,100805.47
2019-04-27T18:15:45.704Z,100813.13
2019-04-27T18:20:38.015Z,100826.74
2019-04-27T18:25:39.794Z,100868.27
2019-04-27T18:30:57.202Z,100874.42
2019-04-27T18:35:51.341Z,100878.41
2019-04-27T18:40:45.480Z,100871.50
2019-04-27T18:45:44.808Z,100882.84
2019-04-27T18:50:52.178Z,100884.63
2019-04-27T18:55:50.051Z,100895.77
2019-04-27T19:00:42.184Z,100902.14
2019-04-27T19:05:40.199Z,100907.51
2019-04-27T19:10:31.879Z,100911.09
2019-04-27T19:15:25.889Z,100920.89
2019-04-27T19:20:19.900Z,100921.10
2019-04-27T19:25:20.703Z,100925.96
2019-04-27T19:30:28.729Z,100929.89
2019-04-27T19:35:22.653Z,100937.48
2019-04-27T19:40:16.546Z,100944.80
2019-04-27T19:45:10.644Z,100958.38
2019-04-27T19:50:05.053Z,100956.88
2019-04-27T19:55:00.461Z,100959.31
2019-04-27T19:59:56.675Z,100965.07
2019-04-27T20:05:00.079Z,100970.45
2019-04-27T20:09:58.384Z,100970.02
2019-04-27T20:14:58.382Z,100970.77
2019-04-27T20:19:52.513Z,100980.48
2019-04-27T20:24:47.690Z,100983.58
2019-04-27T20:29:41.652Z,100979.23
2019-04-27T20:34:35.705Z,100976.43
2019-04-27T20:39:29.629Z,100978.56
2019-04-27T20:44:23.753Z,100982.61
2019-04-27T20:49:20.135Z,100977.82
2019-04-27T20:54:14.069Z,100979.00
2019-04-27T20:59:08.025Z,100981.51
2019-04-27T21:04:03.434Z,100982.17
2019-04-27T21:08:57.292Z,100979.70
2019-04-27T21:13:51.646Z,100985.40
2019-04-27T21:18:47.183Z,100988.78
2019-04-27T21:23:41.543Z,100990.86
2019-04-27T21:28:36.720Z,100956.52
2019-04-27T21:33:31.793Z,100989.67
2019-04-27T21:38:25.823Z,100997.36
2019-04-27T21:43:21.472Z,100998.63
2019-04-27T21:48:15.525Z,101000.27
2019-04-27T21:53:34.926Z,101004.41
2019-04-27T21:58:29.125Z,101016.70
2019-04-27T22:03:28.125Z,101017.95
2019-04-27T22:08:22.231Z,101016.46
2019-04-27T22:13:16.307Z,101026.09
2019-04-27T22:18:11.142Z,101022.82
2019-04-27T22:23:10.273Z,101026.83
2019-04-27T22:28:04.298Z,101025.29
2019-04-27T22:32:58.343Z,101025.89
2019-04-27T22:37:52.339Z,101029.25
2019-04-27T22:43:08.326Z,101034.66
2019-04-27T22:48:02.400Z,101035.62
2019-04-27T22:52:56.236Z,101040.63
2019-04-27T22:57:58.070Z,101044.67
2019-04-27T23:02:55.091Z,101040.80
2019-04-27T23:07:48.949Z,101047.67
2019-04-27T23:12:42.885Z,101046.02
2019-04-27T23:17:55.748Z,101042.09
2019-04-27T23:22:49.565Z,101048.75
2019-04-27T23:27:43.353Z,101046.33
2019-04-27T23:32:41.350Z,101048.34
2019-04-27T23:37:35.215Z,101052.58
2019-04-27T23:42:29.263Z,101053.14
2019-04-27T23:47:23.210Z,101052.45
2019-04-27T23:52:22.170Z,101044.34
2019-04-27T23:57:16.117Z,101045.84
